sensor_id;sensor_type;location;lat;lon;timestamp;pressure;altitude;pressure_sealevel;temperature;humidity
66385;BME280;53426;55.872;37.462;2023-07-16T00:01:48;98953.91;;;14.83;87.55
66385;BME280;53426;55.872;37.462;2023-07-16T00:04:13;98949.25;;;14.77;87.56
66385;BME280;53426;55.872;37.462;2023-07-16T00:06:39;98975.34;;;14.89;87.48
66385;BME280;53426;55.872;37.462;2023-07-16T00:09:06;98978.88;;;14.90;87.40
66385;BME280;53426;55.872;37.462;2023-07-16T00:11:31;98971.91;;;14.89;87.40
66385;BME280;53426;55.872;37.462;2023-07-16T00:13:57;98961.56;;;14.86;87.03
66385;BME280;53426;55.872;37.462;2023-07-16T00:16:23;98972.53;;;14.91;87.06
66385;BME280;53426;55.872;37.462;2023-07-16T00:18:49;98931.59;;;14.68;86.89
66385;BME280;53426;55.872;37.462;2023-07-16T00:21:15;98959.88;;;14.85;86.79
66385;BME280;53426;55.872;37.462;2023-07-16T00:23:42;98963.38;;;14.93;86.81
66385;BME280;53426;55.872;37.462;2023-07-16T00:26:08;98959.03;;;14.84;86.50
66385;BME280;53426;55.872;37.462;2023-07-16T00:28:34;98969.19;;;14.97;86.29
66385;BME280;53426;55.872;37.462;2023-07-16T00:31:02;98966.22;;;14.92;86.41
66385;BME280;53426;55.872;37.462;2023-07-16T00:33:28;98930.59;;;14.77;86.13
66385;BME280;53426;55.872;37.462;2023-07-16T00:35:54;98959.72;;;14.94;85.83
66385;BME280;53426;55.872;37.462;2023-07-16T00:38:20;98964.22;;;14.94;85.84
66385;BME280;53426;55.872;37.462;2023-07-16T00:40:46;98965.38;;;14.99;85.39
66385;BME280;53426;55.872;37.462;2023-07-16T00:43:14;98973.50;;;15.06;85.60
66385;BME280;53426;55.872;37.462;2023-07-16T00:45:41;98971.34;;;15.10;85.44
66385;BME280;53426;55.872;37.462;2023-07-16T00:48:07;98955.69;;;14.98;85.15
66385;BME280;53426;55.872;37.462;2023-07-16T00:50:38;98964.50;;;15.07;84.98
66385;BME280;53426;55.872;37.462;2023-07-16T00:53:07;98962.00;;;15.05;84.91
66385;BME280;53426;55.872;37.462;2023-07-16T00:55:35;98977.81;;;15.15;84.77
66385;BME280;53426;55.872;37.462;2023-07-16T00:58:06;98971.50;;;15.16;84.69
66385;BME280;53426;55.872;37.462;2023-07-16T01:00:36;98974.16;;;15.16;84.78
66385;BME280;53426;55.872;37.462;2023-07-16T01:03:08;98973.66;;;15.13;84.77
66385;BME280;53426;55.872;37.462;2023-07-16T01:08:16;98983.47;;;15.12;85.00
66385;BME280;53426;55.872;37.462;2023-07-16T01:10:45;98990.84;;;15.10;84.98
66385;BME280;53426;55.872;37.462;2023-07-16T01:13:13;98982.69;;;15.03;84.97
66385;BME280;53426;55.872;37.462;2023-07-16T01:15:40;98993.34;;;15.03;85.25
66385;BME280;53426;55.872;37.462;2023-07-16T01:18:06;98988.16;;;15.02;85.42
66385;BME280;53426;55.872;37.462;2023-07-16T01:20:32;98997.16;;;15.01;85.58
66385;BME280;53426;55.872;37.462;2023-07-16T01:23:24;98987.19;;;14.95;85.71
66385;BME280;53426;55.872;37.462;2023-07-16T01:29:07;99004.16;;;15.02;86.15
66385;BME280;53426;55.872;37.462;2023-07-16T01:31:38;99004.53;;;14.99;86.13
66385;BME280;53426;55.872;37.462;2023-07-16T01:34:06;99007.84;;;15.01;86.16
66385;BME280;53426;55.872;37.462;2023-07-16T01:36:34;99011.84;;;15.05;86.22
66385;BME280;53426;55.872;37.462;2023-07-16T01:39:02;98985.03;;;14.90;86.22
66385;BME280;53426;55.872;37.462;2023-07-16T01:41:29;99000.81;;;15.08;86.11
66385;BME280;53426;55.872;37.462;2023-07-16T01:43:55;99011.81;;;15.13;86.08
66385;BME280;53426;55.872;37.462;2023-07-16T01:46:23;98998.31;;;15.15;85.89
66385;BME280;53426;55.872;37.462;2023-07-16T01:48:49;99018.28;;;15.27;85.74
66385;BME280;53426;55.872;37.462;2023-07-16T01:51:15;98992.47;;;15.19;85.64
66385;BME280;53426;55.872;37.462;2023-07-16T01:53:41;99002.44;;;15.25;85.69
66385;BME280;53426;55.872;37.462;2023-07-16T01:56:07;99015.75;;;15.33;85.39
66385;BME280;53426;55.872;37.462;2023-07-16T01:58:35;99000.47;;;15.27;85.44
66385;BME280;53426;55.872;37.462;2023-07-16T02:01:01;99011.75;;;15.29;85.34
66385;BME280;53426;55.872;37.462;2023-07-16T02:03:27;98998.59;;;15.28;85.38
66385;BME280;53426;55.872;37.462;2023-07-16T02:05:53;99003.13;;;15.27;85.16
66385;BME280;53426;55.872;37.462;2023-07-16T02:08:20;99019.09;;;15.35;85.24
66385;BME280;53426;55.872;37.462;2023-07-16T02:10:48;99001.44;;;15.26;85.19
66385;BME280;53426;55.872;37.462;2023-07-16T02:13:15;99020.06;;;15.42;85.03
66385;BME280;53426;55.872;37.462;2023-07-16T02:15:42;99019.88;;;15.44;84.92
66385;BME280;53426;55.872;37.462;2023-07-16T02:18:09;99010.91;;;15.37;84.92
66385;BME280;53426;55.872;37.462;2023-07-16T02:20:56;99029.38;;;15.46;84.92
66385;BME280;53426;55.872;37.462;2023-07-16T02:23:22;99021.91;;;15.42;84.95
66385;BME280;53426;55.872;37.462;2023-07-16T02:25:48;99029.75;;;15.43;84.79
66385;BME280;53426;55.872;37.462;2023-07-16T02:28:16;99030.75;;;15.42;84.84
66385;BME280;53426;55.872;37.462;2023-07-16T02:30:43;99022.22;;;15.39;84.93
66385;BME280;53426;55.872;37.462;2023-07-16T02:33:11;99025.22;;;15.44;85.20
66385;BME280;53426;55.872;37.462;2023-07-16T02:35:37;99023.56;;;15.43;84.92
66385;BME280;53426;55.872;37.462;2023-07-16T02:38:05;99026.34;;;15.49;84.77
66385;BME280;53426;55.872;37.462;2023-07-16T02:40:31;99025.34;;;15.50;84.75
66385;BME280;53426;55.872;37.462;2023-07-16T02:42:58;99025.72;;;15.56;84.19
66385;BME280;53426;55.872;37.462;2023-07-16T02:45:25;99034.84;;;15.61;84.11
66385;BME280;53426;55.872;37.462;2023-07-16T02:47:51;99009.88;;;15.54;84.04
66385;BME280;53426;55.872;37.462;2023-07-16T02:50:17;99027.16;;;15.66;83.82
66385;BME280;53426;55.872;37.462;2023-07-16T02:52:43;99024.69;;;15.65;83.52
66385;BME280;53426;55.872;37.462;2023-07-16T02:55:08;99025.84;;;15.70;83.31
66385;BME280;53426;55.872;37.462;2023-07-16T02:57:35;99023.63;;;15.74;83.31
66385;BME280;53426;55.872;37.462;2023-07-16T03:00:00;99039.25;;;15.85;83.18
66385;BME280;53426;55.872;37.462;2023-07-16T03:02:31;99033.09;;;15.84;82.85
66385;BME280;53426;55.872;37.462;2023-07-16T03:04:57;99046.41;;;15.93;82.53
66385;BME280;53426;55.872;37.462;2023-07-16T03:07:23;99037.22;;;15.95;82.25
66385;BME280;53426;55.872;37.462;2023-07-16T03:09:50;99043.69;;;16.01;82.08
66385;BME280;53426;55.872;37.462;2023-07-16T03:12:16;99016.59;;;15.81;81.62
66385;BME280;53426;55.872;37.462;2023-07-16T03:14:41;99017.28;;;15.75;82.02
66385;BME280;53426;55.872;37.462;2023-07-16T03:17:07;99056.88;;;16.02;81.98
66385;BME280;53426;55.872;37.462;2023-07-16T03:19:33;99053.84;;;16.05;81.73
66385;BME280;53426;55.872;37.462;2023-07-16T03:22:01;99045.66;;;16.07;81.31
66385;BME280;53426;55.872;37.462;2023-07-16T03:24:28;99049.91;;;16.24;81.28
66385;BME280;53426;55.872;37.462;2023-07-16T03:26:54;99053.94;;;16.43;80.46
66385;BME280;53426;55.872;37.462;2023-07-16T03:29:21;99054.84;;;16.58;79.75
66385;BME280;53426;55.872;37.462;2023-07-16T03:31:47;99040.78;;;16.64;78.88
66385;BME280;53426;55.872;37.462;2023-07-16T03:34:16;99047.56;;;16.75;78.94
66385;BME280;53426;55.872;37.462;2023-07-16T03:36:44;99062.72;;;16.97;78.17
66385;BME280;53426;55.872;37.462;2023-07-16T03:39:10;99058.03;;;17.13;77.34
66385;BME280;53426;55.872;37.462;2023-07-16T03:41:36;99056.13;;;17.22;76.18
66385;BME280;53426;55.872;37.462;2023-07-16T03:44:03;99049.13;;;17.36;76.01
66385;BME280;53426;55.872;37.462;2023-07-16T03:46:34;99074.31;;;17.41;75.06
66385;BME280;53426;55.872;37.462;2023-07-16T03:49:01;99071.19;;;17.38;75.60
66385;BME280;53426;55.872;37.462;2023-07-16T03:51:26;99072.31;;;17.29;75.90
66385;BME280;53426;55.872;37.462;2023-07-16T03:53:53;99080.78;;;17.18;76.32
66385;BME280;53426;55.872;37.462;2023-07-16T03:56:20;99073.72;;;17.02;76.49
66385;BME280;53426;55.872;37.462;2023-07-16T03:58:47;99071.22;;;17.00;76.83
66385;BME280;53426;55.872;37.462;2023-07-16T04:01:13;99076.59;;;16.78;77.77
66385;BME280;53426;55.872;37.462;2023-07-16T04:03:40;99076.47;;;16.71;77.59
66385;BME280;53426;55.872;37.462;2023-07-16T04:06:08;99091.63;;;16.79;77.83
66385;BME280;53426;55.872;37.462;2023-07-16T04:08:35;99090.94;;;16.85;77.85
66385;BME280;53426;55.872;37.462;2023-07-16T04:11:02;99079.94;;;16.80;78.01
66385;BME280;53426;55.872;37.462;2023-07-16T04:13:29;99080.75;;;16.80;77.51
66385;BME280;53426;55.872;37.462;2023-07-16T04:18:50;99081.25;;;16.98;77.80
66385;BME280;53426;55.872;37.462;2023-07-16T04:21:16;99064.06;;;16.78;77.46
66385;BME280;53426;55.872;37.462;2023-07-16T04:23:42;99078.56;;;16.84;77.18
66385;BME280;53426;55.872;37.462;2023-07-16T04:26:08;99081.41;;;16.82;77.48
66385;BME280;53426;55.872;37.462;2023-07-16T04:28:34;99089.00;;;16.93;77.70
66385;BME280;53426;55.872;37.462;2023-07-16T04:31:00;99085.66;;;16.91;77.45
66385;BME280;53426;55.872;37.462;2023-07-16T04:33:26;99097.19;;;16.92;77.61
66385;BME280;53426;55.872;37.462;2023-07-16T04:35:51;99098.28;;;16.83;77.64
66385;BME280;53426;55.872;37.462;2023-07-16T04:38:17;99099.81;;;16.77;77.96
66385;BME280;53426;55.872;37.462;2023-07-16T04:40:43;99100.84;;;16.76;78.12
66385;BME280;53426;55.872;37.462;2023-07-16T04:43:09;99086.88;;;16.66;78.11
66385;BME280;53426;55.872;37.462;2023-07-16T04:45:35;99110.91;;;16.74;78.80
66385;BME280;53426;55.872;37.462;2023-07-16T04:48:01;99090.84;;;16.70;78.44
66385;BME280;53426;55.872;37.462;2023-07-16T04:50:26;99090.09;;;16.84;78.65
66385;BME280;53426;55.872;37.462;2023-07-16T04:52:52;99082.66;;;16.94;78.05
66385;BME280;53426;55.872;37.462;2023-07-16T04:55:18;99077.22;;;17.02;77.73
66385;BME280;53426;55.872;37.462;2023-07-16T04:57:45;99092.66;;;17.15;77.56
66385;BME280;53426;55.872;37.462;2023-07-16T05:00:11;99095.31;;;17.15;77.57
66385;BME280;53426;55.872;37.462;2023-07-16T05:02:37;99092.47;;;17.17;77.43
66385;BME280;53426;55.872;37.462;2023-07-16T05:05:04;99085.16;;;17.10;77.92
66385;BME280;53426;55.872;37.462;2023-07-16T05:07:31;99084.28;;;17.18;77.71
66385;BME280;53426;55.872;37.462;2023-07-16T05:09:56;99072.75;;;17.18;77.38
66385;BME280;53426;55.872;37.462;2023-07-16T05:12:22;99094.16;;;17.32;77.08
66385;BME280;53426;55.872;37.462;2023-07-16T05:14:48;99090.59;;;17.40;77.04
66385;BME280;53426;55.872;37.462;2023-07-16T05:17:14;99100.59;;;17.61;76.43
66385;BME280;53426;55.872;37.462;2023-07-16T05:19:42;99088.94;;;17.68;75.74
66385;BME280;53426;55.872;37.462;2023-07-16T05:22:08;99093.47;;;17.82;75.36
66385;BME280;53426;55.872;37.462;2023-07-16T05:24:34;99091.25;;;17.86;75.07
66385;BME280;53426;55.872;37.462;2023-07-16T05:27:00;99083.78;;;17.81;74.97
66385;BME280;53426;55.872;37.462;2023-07-16T05:29:27;99080.09;;;17.82;75.09
66385;BME280;53426;55.872;37.462;2023-07-16T05:31:53;99108.78;;;18.03;74.89
66385;BME280;53426;55.872;37.462;2023-07-16T05:34:18;99111.16;;;18.13;74.72
66385;BME280;53426;55.872;37.462;2023-07-16T05:36:44;99108.19;;;18.22;73.70
66385;BME280;53426;55.872;37.462;2023-07-16T05:39:11;99105.41;;;18.30;74.06
66385;BME280;53426;55.872;37.462;2023-07-16T05:41:39;99074.31;;;18.15;73.52
66385;BME280;53426;55.872;37.462;2023-07-16T05:44:06;99044.19;;;18.13;73.11
66385;BME280;53426;55.872;37.462;2023-07-16T05:46:33;99073.84;;;18.47;72.20
66385;BME280;53426;55.872;37.462;2023-07-16T05:48:59;99113.72;;;18.93;71.88
66385;BME280;53426;55.872;37.462;2023-07-16T05:51:25;99068.91;;;18.87;71.44
66385;BME280;53426;55.872;37.462;2023-07-16T05:53:50;99106.09;;;19.17;70.92
66385;BME280;53426;55.872;37.462;2023-07-16T05:56:16;99115.56;;;19.41;70.49
66385;BME280;53426;55.872;37.462;2023-07-16T05:58:42;99113.03;;;19.33;70.17
66385;BME280;53426;55.872;37.462;2023-07-16T06:01:08;99099.06;;;19.16;70.31
66385;BME280;53426;55.872;37.462;2023-07-16T06:03:34;99088.69;;;18.86;71.24
66385;BME280;53426;55.872;37.462;2023-07-16T06:06:00;99080.13;;;18.54;71.86
66385;BME280;53426;55.872;37.462;2023-07-16T06:08:26;99104.13;;;18.62;72.33
66385;BME280;53426;55.872;37.462;2023-07-16T06:10:52;99099.38;;;18.43;73.08
66385;BME280;53426;55.872;37.462;2023-07-16T06:13:18;99113.78;;;18.57;73.37
66385;BME280;53426;55.872;37.462;2023-07-16T06:15:45;99121.00;;;18.77;72.64
66385;BME280;53426;55.872;37.462;2023-07-16T06:18:11;99121.06;;;18.84;72.67
66385;BME280;53426;55.872;37.462;2023-07-16T06:20:37;99125.97;;;19.02;72.28
66385;BME280;53426;55.872;37.462;2023-07-16T06:23:03;99107.03;;;19.03;71.70
66385;BME280;53426;55.872;37.462;2023-07-16T06:25:29;99123.41;;;19.15;71.01
66385;BME280;53426;55.872;37.462;2023-07-16T06:27:55;99109.88;;;19.02;71.81
66385;BME280;53426;55.872;37.462;2023-07-16T06:30:20;99100.38;;;18.78;72.13
66385;BME280;53426;55.872;37.462;2023-07-16T06:32:47;99099.78;;;18.83;72.18
66385;BME280;53426;55.872;37.462;2023-07-16T06:35:13;99118.25;;;19.41;70.79
66385;BME280;53426;55.872;37.462;2023-07-16T06:37:38;99119.63;;;19.93;69.52
66385;BME280;53426;55.872;37.462;2023-07-16T06:40:07;99125.28;;;20.45;67.59
66385;BME280;53426;55.872;37.462;2023-07-16T06:42:34;99103.47;;;21.41;65.18
66385;BME280;53426;55.872;37.462;2023-07-16T06:44:59;99118.56;;;21.61;64.06
66385;BME280;53426;55.872;37.462;2023-07-16T06:47:25;99118.38;;;21.10;64.15
66385;BME280;53426;55.872;37.462;2023-07-16T06:49:51;99132.38;;;20.79;65.06
66385;BME280;53426;55.872;37.462;2023-07-16T06:52:23;99121.63;;;20.66;65.00
66385;BME280;53426;55.872;37.462;2023-07-16T06:54:54;99132.69;;;20.37;66.44
66385;BME280;53426;55.872;37.462;2023-07-16T06:57:21;99126.91;;;20.33;66.60
66385;BME280;53426;55.872;37.462;2023-07-16T06:59:47;99135.00;;;20.40;66.85
66385;BME280;53426;55.872;37.462;2023-07-16T07:02:13;99131.69;;;20.44;66.32
66385;BME280;53426;55.872;37.462;2023-07-16T07:04:39;99119.09;;;20.45;66.25
66385;BME280;53426;55.872;37.462;2023-07-16T07:07:06;99130.41;;;20.40;65.90
66385;BME280;53426;55.872;37.462;2023-07-16T07:09:32;99123.13;;;20.28;66.82
66385;BME280;53426;55.872;37.462;2023-07-16T07:11:58;99134.38;;;20.51;66.23
66385;BME280;53426;55.872;37.462;2023-07-16T07:14:24;99137.38;;;20.96;65.25
66385;BME280;53426;55.872;37.462;2023-07-16T07:16:50;99145.72;;;21.34;64.47
66385;BME280;53426;55.872;37.462;2023-07-16T07:19:15;99131.66;;;21.32;63.44
66385;BME280;53426;55.872;37.462;2023-07-16T07:21:41;99126.00;;;21.07;63.87
66385;BME280;53426;55.872;37.462;2023-07-16T07:24:07;99123.88;;;20.63;65.14
66385;BME280;53426;55.872;37.462;2023-07-16T07:26:33;99117.44;;;20.51;65.85
66385;BME280;53426;55.872;37.462;2023-07-16T07:28:59;99117.03;;;20.54;66.21
66385;BME280;53426;55.872;37.462;2023-07-16T07:31:25;99133.22;;;20.80;65.37
66385;BME280;53426;55.872;37.462;2023-07-16T07:33:51;99121.69;;;20.99;64.59
66385;BME280;53426;55.872;37.462;2023-07-16T07:36:19;99115.69;;;21.37;63.23
66385;BME280;53426;55.872;37.462;2023-07-16T07:38:45;99143.84;;;21.80;61.91
66385;BME280;53426;55.872;37.462;2023-07-16T07:41:11;99133.22;;;22.05;60.76
66385;BME280;53426;55.872;37.462;2023-07-16T07:43:37;99130.88;;;22.22;60.46
66385;BME280;53426;55.872;37.462;2023-07-16T07:46:02;99124.25;;;22.24;60.11
66385;BME280;53426;55.872;37.462;2023-07-16T07:48:28;99126.47;;;22.34;59.33
66385;BME280;53426;55.872;37.462;2023-07-16T07:50:54;99126.69;;;22.26;58.70
66385;BME280;53426;55.872;37.462;2023-07-16T07:53:20;99111.94;;;22.35;58.65
66385;BME280;53426;55.872;37.462;2023-07-16T07:55:46;99124.50;;;22.54;58.73
66385;BME280;53426;55.872;37.462;2023-07-16T07:58:12;99118.34;;;22.85;58.26
66385;BME280;53426;55.872;37.462;2023-07-16T08:00:38;99097.44;;;24.28;55.03
66385;BME280;53426;55.872;37.462;2023-07-16T08:03:04;99132.78;;;25.22;52.55
66385;BME280;53426;55.872;37.462;2023-07-16T08:05:31;99125.75;;;26.54;49.69
66385;BME280;53426;55.872;37.462;2023-07-16T08:07:59;99114.84;;;27.78;45.09
66385;BME280;53426;55.872;37.462;2023-07-16T08:10:24;99085.84;;;27.33;44.87
66385;BME280;53426;55.872;37.462;2023-07-16T08:12:50;99130.41;;;26.71;46.56
66385;BME280;53426;55.872;37.462;2023-07-16T08:15:17;99119.53;;;25.79;48.55
66385;BME280;53426;55.872;37.462;2023-07-16T08:17:45;99122.00;;;24.92;49.60
66385;BME280;53426;55.872;37.462;2023-07-16T08:20:12;99121.97;;;24.63;51.23
66385;BME280;53426;55.872;37.462;2023-07-16T08:22:40;99109.41;;;24.38;51.85
66385;BME280;53426;55.872;37.462;2023-07-16T08:25:07;99090.53;;;24.13;51.35
66385;BME280;53426;55.872;37.462;2023-07-16T08:27:34;99121.63;;;23.86;52.08
66385;BME280;53426;55.872;37.462;2023-07-16T08:30:00;99114.97;;;23.46;53.75
66385;BME280;53426;55.872;37.462;2023-07-16T08:32:34;99116.31;;;23.30;52.92
66385;BME280;53426;55.872;37.462;2023-07-16T08:35:04;99135.34;;;23.42;53.54
66385;BME280;53426;55.872;37.462;2023-07-16T08:37:30;99122.00;;;23.22;54.41
66385;BME280;53426;55.872;37.462;2023-07-16T08:39:57;99136.22;;;23.35;54.45
66385;BME280;53426;55.872;37.462;2023-07-16T08:42:43;99118.59;;;23.58;54.41
66385;BME280;53426;55.872;37.462;2023-07-16T08:45:14;99131.16;;;23.70;53.58
66385;BME280;53426;55.872;37.462;2023-07-16T08:47:45;99111.06;;;24.03;52.09
66385;BME280;53426;55.872;37.462;2023-07-16T08:50:13;99113.22;;;24.49;51.60
66385;BME280;53426;55.872;37.462;2023-07-16T08:52:40;99120.50;;;24.48;50.70
66385;BME280;53426;55.872;37.462;2023-07-16T08:55:06;99099.72;;;24.60;50.25
66385;BME280;53426;55.872;37.462;2023-07-16T08:57:32;99115.00;;;25.15;50.05
66385;BME280;53426;55.872;37.462;2023-07-16T09:00:00;99090.84;;;25.25;48.64
66385;BME280;53426;55.872;37.462;2023-07-16T09:02:26;99119.97;;;25.76;47.30
66385;BME280;53426;55.872;37.462;2023-07-16T09:04:52;99121.09;;;26.15;46.77
66385;BME280;53426;55.872;37.462;2023-07-16T09:07:18;99116.41;;;26.62;46.27
66385;BME280;53426;55.872;37.462;2023-07-16T09:09:55;99100.47;;;26.82;45.48
66385;BME280;53426;55.872;37.462;2023-07-16T09:12:24;99110.66;;;26.75;45.01
66385;BME280;53426;55.872;37.462;2023-07-16T09:14:50;99087.34;;;27.41;43.52
66385;BME280;53426;55.872;37.462;2023-07-16T09:17:23;99099.81;;;28.79;41.15
66385;BME280;53426;55.872;37.462;2023-07-16T09:19:50;99116.78;;;29.87;39.30
66385;BME280;53426;55.872;37.462;2023-07-16T09:22:18;99114.47;;;30.83;37.48
66385;BME280;53426;55.872;37.462;2023-07-16T09:24:46;99111.19;;;30.91;36.43
66385;BME280;53426;55.872;37.462;2023-07-16T09:27:13;99117.28;;;31.74;35.88
66385;BME280;53426;55.872;37.462;2023-07-16T09:29:39;99109.81;;;32.64;33.13
66385;BME280;53426;55.872;37.462;2023-07-16T09:32:05;99103.78;;;32.72;33.01
66385;BME280;53426;55.872;37.462;2023-07-16T09:34:32;99110.03;;;33.17;31.77
66385;BME280;53426;55.872;37.462;2023-07-16T09:37:00;99102.38;;;33.48;31.85
66385;BME280;53426;55.872;37.462;2023-07-16T09:40:03;99080.53;;;34.14;32.98
66385;BME280;53426;55.872;37.462;2023-07-16T09:42:41;99091.38;;;33.19;30.42
66385;BME280;53426;55.872;37.462;2023-07-16T09:45:17;99077.25;;;32.97;31.42
66385;BME280;53426;55.872;37.462;2023-07-16T09:47:44;99085.03;;;33.24;30.34
66385;BME280;53426;55.872;37.462;2023-07-16T09:50:13;99111.03;;;33.89;30.32
66385;BME280;53426;55.872;37.462;2023-07-16T09:52:42;99109.34;;;33.69;29.51
66385;BME280;53426;55.872;37.462;2023-07-16T09:55:09;99114.69;;;34.08;29.07
66385;BME280;53426;55.872;37.462;2023-07-16T09:57:38;99110.44;;;34.63;28.85
66385;BME280;53426;55.872;37.462;2023-07-16T10:00:09;99099.34;;;35.24;27.58
66385;BME280;53426;55.872;37.462;2023-07-16T10:02:41;99105.19;;;35.69;26.54
66385;BME280;53426;55.872;37.462;2023-07-16T10:07:39;99100.84;;;35.82;26.19
66385;BME280;53426;55.872;37.462;2023-07-16T10:10:10;99090.97;;;35.94;26.00
66385;BME280;53426;55.872;37.462;2023-07-16T10:12:37;99078.59;;;36.05;25.96
66385;BME280;53426;55.872;37.462;2023-07-16T10:15:05;99091.09;;;35.24;26.77
66385;BME280;53426;55.872;37.462;2023-07-16T10:17:34;99101.59;;;33.08;29.50
66385;BME280;53426;55.872;37.462;2023-07-16T10:20:10;99098.25;;;32.77;30.55
66385;BME280;53426;55.872;37.462;2023-07-16T10:22:40;99097.19;;;32.68;30.30
66385;BME280;53426;55.872;37.462;2023-07-16T10:27:46;99091.25;;;31.01;31.85
66385;BME280;53426;55.872;37.462;2023-07-16T10:30:13;99093.72;;;31.48;31.32
66385;BME280;53426;55.872;37.462;2023-07-16T10:32:39;99085.69;;;32.07;30.74
66385;BME280;53426;55.872;37.462;2023-07-16T10:35:06;99099.72;;;33.04;29.42
66385;BME280;53426;55.872;37.462;2023-07-16T10:37:34;99094.47;;;33.41;28.58
66385;BME280;53426;55.872;37.462;2023-07-16T10:40:01;99093.38;;;33.42;27.87
66385;BME280;53426;55.872;37.462;2023-07-16T10:42:34;99086.75;;;34.01;27.48
66385;BME280;53426;55.872;37.462;2023-07-16T10:45:04;99065.59;;;34.25;26.47
66385;BME280;53426;55.872;37.462;2023-07-16T10:47:35;99094.63;;;33.26;29.00
66385;BME280;53426;55.872;37.462;2023-07-16T10:50:09;99089.09;;;31.64;31.03
66385;BME280;53426;55.872;37.462;2023-07-16T10:52:37;99077.31;;;31.43;31.07
66385;BME280;53426;55.872;37.462;2023-07-16T10:55:04;99086.63;;;31.16;31.31
66385;BME280;53426;55.872;37.462;2023-07-16T10:57:31;99079.22;;;30.82;31.73
66385;BME280;53426;55.872;37.462;2023-07-16T10:59:59;99065.66;;;30.29;33.15
66385;BME280;53426;55.872;37.462;2023-07-16T11:02:26;99088.97;;;29.90;33.25
66385;BME280;53426;55.872;37.462;2023-07-16T11:04:52;99090.50;;;29.34;35.13
66385;BME280;53426;55.872;37.462;2023-07-16T11:07:23;99078.25;;;28.29;36.28
66385;BME280;53426;55.872;37.462;2023-07-16T11:09:53;99069.31;;;27.52;37.30
66385;BME280;53426;55.872;37.462;2023-07-16T11:12:21;99072.69;;;27.42;37.38
66385;BME280;53426;55.872;37.462;2023-07-16T11:14:57;99087.13;;;27.59;37.17
66385;BME280;53426;55.872;37.462;2023-07-16T11:17:24;99066.03;;;27.33;37.68
66385;BME280;53426;55.872;37.462;2023-07-16T11:19:52;99080.03;;;27.25;37.64
66385;BME280;53426;55.872;37.462;2023-07-16T11:22:19;99068.91;;;27.10;38.06
66385;BME280;53426;55.872;37.462;2023-07-16T11:24:47;99072.09;;;26.90;38.28
66385;BME280;53426;55.872;37.462;2023-07-16T11:27:13;99073.47;;;26.76;38.61
66385;BME280;53426;55.872;37.462;2023-07-16T11:29:48;99066.00;;;26.54;41.35
66385;BME280;53426;55.872;37.462;2023-07-16T11:32:41;99070.19;;;26.05;40.66
66385;BME280;53426;55.872;37.462;2023-07-16T11:35:10;99076.75;;;25.58;42.33
66385;BME280;53426;55.872;37.462;2023-07-16T11:37:36;99081.09;;;25.47;42.80
66385;BME280;53426;55.872;37.462;2023-07-16T11:40:04;99084.75;;;25.53;41.62
66385;BME280;53426;55.872;37.462;2023-07-16T11:42:40;99080.41;;;25.63;41.20
66385;BME280;53426;55.872;37.462;2023-07-16T11:45:16;99051.94;;;25.42;41.22
66385;BME280;53426;55.872;37.462;2023-07-16T11:47:43;99086.72;;;25.46;41.72
66385;BME280;53426;55.872;37.462;2023-07-16T11:53:27;99091.28;;;25.10;41.26
66385;BME280;53426;55.872;37.462;2023-07-16T11:55:55;99065.13;;;24.92;42.44
66385;BME280;53426;55.872;37.462;2023-07-16T11:58:22;99096.44;;;25.00;42.52
66385;BME280;53426;55.872;37.462;2023-07-16T12:00:50;99090.22;;;25.11;42.07
66385;BME280;53426;55.872;37.462;2023-07-16T12:03:17;99094.38;;;25.14;41.89
66385;BME280;53426;55.872;37.462;2023-07-16T12:05:43;99099.31;;;25.28;42.44
66385;BME280;53426;55.872;37.462;2023-07-16T12:08:14;99088.00;;;25.43;41.04
66385;BME280;53426;55.872;37.462;2023-07-16T12:10:46;99066.31;;;25.31;40.95
66385;BME280;53426;55.872;37.462;2023-07-16T12:13:12;99082.59;;;25.55;40.64
66385;BME280;53426;55.872;37.462;2023-07-16T12:15:40;99061.88;;;25.25;40.84
66385;BME280;53426;55.872;37.462;2023-07-16T12:18:06;99069.28;;;25.30;42.31
66385;BME280;53426;55.872;37.462;2023-07-16T12:20:34;99074.56;;;25.13;41.86
66385;BME280;53426;55.872;37.462;2023-07-16T12:23:05;99061.13;;;24.95;42.74
66385;BME280;53426;55.872;37.462;2023-07-16T12:25:31;99073.59;;;24.96;42.80
66385;BME280;53426;55.872;37.462;2023-07-16T12:28:02;99064.97;;;24.87;43.46
66385;BME280;53426;55.872;37.462;2023-07-16T12:30:29;99055.44;;;24.55;44.44
66385;BME280;53426;55.872;37.462;2023-07-16T12:32:56;99072.41;;;24.62;43.76
66385;BME280;53426;55.872;37.462;2023-07-16T12:35:23;99075.63;;;24.71;44.12
66385;BME280;53426;55.872;37.462;2023-07-16T12:37:49;99044.16;;;24.28;44.57
66385;BME280;53426;55.872;37.462;2023-07-16T12:40:15;99080.84;;;24.42;44.95
66385;BME280;53426;55.872;37.462;2023-07-16T12:42:43;99073.28;;;24.44;44.77
66385;BME280;53426;55.872;37.462;2023-07-16T12:45:11;99080.84;;;24.42;44.69
66385;BME280;53426;55.872;37.462;2023-07-16T12:47:37;99069.63;;;24.39;44.60
66385;BME280;53426;55.872;37.462;2023-07-16T12:50:04;99085.22;;;24.25;45.21
66385;BME280;53426;55.872;37.462;2023-07-16T12:52:32;99062.16;;;24.04;43.94
66385;BME280;53426;55.872;37.462;2023-07-16T12:55:00;99081.81;;;24.11;44.10
66385;BME280;53426;55.872;37.462;2023-07-16T12:57:26;99070.84;;;24.06;44.89
66385;BME280;53426;55.872;37.462;2023-07-16T12:59:52;99076.97;;;24.20;44.78
66385;BME280;53426;55.872;37.462;2023-07-16T13:02:18;99082.78;;;24.17;45.68
66385;BME280;53426;55.872;37.462;2023-07-16T13:04:44;99066.19;;;24.13;45.84
66385;BME280;53426;55.872;37.462;2023-07-16T13:07:10;99051.00;;;24.12;45.51
66385;BME280;53426;55.872;37.462;2023-07-16T13:09:36;99076.75;;;24.22;45.38